sensor_id;sensor_type;location;lat;lon;timestamp;P1;durP1;ratioP1;P2;durP2;ratioP2
73563;SDS011;61834;50.196;6.454;2023-02-21T00:01:40;13.75;;;8.82;;
73563;SDS011;61834;50.196;6.454;2023-02-21T00:04:24;18.63;;;8.82;;
73563;SDS011;61834;50.196;6.454;2023-02-21T00:07:08;15.68;;;8.90;;
73563;SDS011;61834;50.196;6.454;2023-02-21T00:09:52;15.55;;;9.15;;
73563;SDS011;61834;50.196;6.454;2023-02-21T00:12:36;15.80;;;9.77;;
73563;SDS011;61834;50.196;6.454;2023-02-21T00:15:20;15.65;;;9.32;;
73563;SDS011;61834;50.196;6.454;2023-02-21T00:18:04;20.23;;;9.77;;
73563;SDS011;61834;50.196;6.454;2023-02-21T00:20:48;18.08;;;9.45;;
73563;SDS011;61834;50.196;6.454;2023-02-21T00:23:33;20.92;;;10.70;;
73563;SDS011;61834;50.196;6.454;2023-02-21T00:26:18;22.85;;;11.25;;
73563;SDS011;61834;50.196;6.454;2023-02-21T00:29:03;20.58;;;10.77;;
73563;SDS011;61834;50.196;6.454;2023-02-21T00:31:47;21.90;;;10.57;;
73563;SDS011;61834;50.196;6.454;2023-02-21T00:34:32;19.27;;;9.35;;
73563;SDS011;61834;50.196;6.454;2023-02-21T00:37:16;14.65;;;8.68;;
73563;SDS011;61834;50.196;6.454;2023-02-21T00:40:00;12.80;;;8.45;;
73563;SDS011;61834;50.196;6.454;2023-02-21T00:42:43;15.05;;;8.30;;
73563;SDS011;61834;50.196;6.454;2023-02-21T00:45:27;13.43;;;8.80;;
73563;SDS011;61834;50.196;6.454;2023-02-21T00:48:11;13.32;;;7.38;;
73563;SDS011;61834;50.196;6.454;2023-02-21T00:50:55;16.10;;;8.88;;
73563;SDS011;61834;50.196;6.454;2023-02-21T00:53:39;12.50;;;7.82;;
73563;SDS011;61834;50.196;6.454;2023-02-21T00:56:23;12.52;;;7.60;;
73563;SDS011;61834;50.196;6.454;2023-02-21T00:59:07;18.05;;;9.43;;
73563;SDS011;61834;50.196;6.454;2023-02-21T01:01:51;16.98;;;9.48;;
73563;SDS011;61834;50.196;6.454;2023-02-21T01:04:35;17.55;;;10.05;;
73563;SDS011;61834;50.196;6.454;2023-02-21T01:07:19;14.82;;;9.00;;
73563;SDS011;61834;50.196;6.454;2023-02-21T01:10:05;14.45;;;9.13;;
73563;SDS011;61834;50.196;6.454;2023-02-21T01:12:49;17.17;;;9.65;;
73563;SDS011;61834;50.196;6.454;2023-02-21T01:15:33;20.02;;;10.13;;
73563;SDS011;61834;50.196;6.454;2023-02-21T01:18:18;15.38;;;9.80;;
73563;SDS011;61834;50.196;6.454;2023-02-21T01:21:02;13.55;;;9.20;;
73563;SDS011;61834;50.196;6.454;2023-02-21T01:23:46;16.27;;;9.90;;
73563;SDS011;61834;50.196;6.454;2023-02-21T01:26:31;16.30;;;9.38;;
73563;SDS011;61834;50.196;6.454;2023-02-21T01:29:15;14.98;;;8.98;;
73563;SDS011;61834;50.196;6.454;2023-02-21T01:31:59;17.30;;;8.90;;
73563;SDS011;61834;50.196;6.454;2023-02-21T01:34:43;14.65;;;9.23;;
73563;SDS011;61834;50.196;6.454;2023-02-21T01:37:27;18.38;;;10.00;;
73563;SDS011;61834;50.196;6.454;2023-02-21T01:40:15;16.13;;;9.27;;
73563;SDS011;61834;50.196;6.454;2023-02-21T01:43:00;14.35;;;8.85;;
73563;SDS011;61834;50.196;6.454;2023-02-21T01:45:47;14.95;;;8.35;;
73563;SDS011;61834;50.196;6.454;2023-02-21T01:48:32;16.63;;;9.43;;
73563;SDS011;61834;50.196;6.454;2023-02-21T01:51:21;15.70;;;8.70;;
73563;SDS011;61834;50.196;6.454;2023-02-21T01:54:09;19.83;;;9.75;;
73563;SDS011;61834;50.196;6.454;2023-02-21T01:56:54;15.80;;;10.73;;
73563;SDS011;61834;50.196;6.454;2023-02-21T01:59:39;19.15;;;10.40;;
73563;SDS011;61834;50.196;6.454;2023-02-21T02:05:18;13.38;;;8.43;;
73563;SDS011;61834;50.196;6.454;2023-02-21T02:08:03;17.02;;;9.80;;
73563;SDS011;61834;50.196;6.454;2023-02-21T02:10:48;15.20;;;9.52;;
73563;SDS011;61834;50.196;6.454;2023-02-21T02:14:00;19.48;;;10.45;;
73563;SDS011;61834;50.196;6.454;2023-02-21T02:36:52;14.10;;;8.27;;
73563;SDS011;61834;50.196;6.454;2023-02-21T02:39:31;17.13;;;9.75;;
73563;SDS011;61834;50.196;6.454;2023-02-21T02:44:41;19.95;;;9.98;;
73563;SDS011;61834;50.196;6.454;2023-02-21T02:47:17;17.23;;;10.32;;
73563;SDS011;61834;50.196;6.454;2023-02-21T02:49:47;17.25;;;8.30;;
73563;SDS011;61834;50.196;6.454;2023-02-21T02:52:15;17.35;;;10.27;;
73563;SDS011;61834;50.196;6.454;2023-02-21T02:54:41;15.23;;;8.77;;
73563;SDS011;61834;50.196;6.454;2023-02-21T02:57:07;18.20;;;9.65;;
73563;SDS011;61834;50.196;6.454;2023-02-21T02:59:38;17.80;;;10.35;;
73563;SDS011;61834;50.196;6.454;2023-02-21T03:02:26;16.33;;;8.40;;
73563;SDS011;61834;50.196;6.454;2023-02-21T03:05:13;16.77;;;10.02;;
73563;SDS011;61834;50.196;6.454;2023-02-21T03:07:58;14.82;;;9.00;;
73563;SDS011;61834;50.196;6.454;2023-02-21T03:10:34;14.60;;;9.45;;
73563;SDS011;61834;50.196;6.454;2023-02-21T03:16:28;14.95;;;8.15;;
73563;SDS011;61834;50.196;6.454;2023-02-21T03:19:03;15.85;;;9.13;;
73563;SDS011;61834;50.196;6.454;2023-02-21T03:21:36;18.83;;;9.20;;
73563;SDS011;61834;50.196;6.454;2023-02-21T03:24:07;12.50;;;7.25;;
73563;SDS011;61834;50.196;6.454;2023-02-21T03:26:36;17.27;;;9.43;;
73563;SDS011;61834;50.196;6.454;2023-02-21T03:29:27;18.98;;;9.82;;
73563;SDS011;61834;50.196;6.454;2023-02-21T03:31:55;19.23;;;10.32;;
73563;SDS011;61834;50.196;6.454;2023-02-21T03:34:35;20.80;;;10.20;;
73563;SDS011;61834;50.196;6.454;2023-02-21T03:37:07;21.15;;;10.35;;
73563;SDS011;61834;50.196;6.454;2023-02-21T03:39:35;17.77;;;9.30;;
73563;SDS011;61834;50.196;6.454;2023-02-21T03:42:01;17.95;;;9.45;;
73563;SDS011;61834;50.196;6.454;2023-02-21T03:44:27;20.10;;;9.95;;
73563;SDS011;61834;50.196;6.454;2023-02-21T03:46:52;14.50;;;8.25;;
73563;SDS011;61834;50.196;6.454;2023-02-21T03:49:18;13.57;;;8.27;;
73563;SDS011;61834;50.196;6.454;2023-02-21T03:51:44;13.13;;;7.80;;
73563;SDS011;61834;50.196;6.454;2023-02-21T03:54:10;13.77;;;7.45;;
73563;SDS011;61834;50.196;6.454;2023-02-21T03:56:41;13.88;;;8.20;;
73563;SDS011;61834;50.196;6.454;2023-02-21T03:59:17;13.20;;;7.15;;
73563;SDS011;61834;50.196;6.454;2023-02-21T04:01:43;13.98;;;7.63;;
73563;SDS011;61834;50.196;6.454;2023-02-21T04:04:09;13.52;;;7.88;;
73563;SDS011;61834;50.196;6.454;2023-02-21T04:06:35;13.80;;;7.25;;
73563;SDS011;61834;50.196;6.454;2023-02-21T04:09:01;16.95;;;8.88;;
73563;SDS011;61834;50.196;6.454;2023-02-21T04:11:27;15.55;;;9.50;;
73563;SDS011;61834;50.196;6.454;2023-02-21T04:13:52;17.85;;;9.15;;
73563;SDS011;61834;50.196;6.454;2023-02-21T04:16:18;21.35;;;9.68;;
73563;SDS011;61834;50.196;6.454;2023-02-21T04:18:44;24.27;;;10.18;;
73563;SDS011;61834;50.196;6.454;2023-02-21T04:21:14;21.38;;;11.05;;
73563;SDS011;61834;50.196;6.454;2023-02-21T04:23:41;22.83;;;11.10;;
73563;SDS011;61834;50.196;6.454;2023-02-21T04:26:06;23.42;;;11.88;;
73563;SDS011;61834;50.196;6.454;2023-02-21T04:28:39;29.13;;;11.70;;
73563;SDS011;61834;50.196;6.454;2023-02-21T04:31:04;21.00;;;11.48;;
73563;SDS011;61834;50.196;6.454;2023-02-21T04:33:30;15.98;;;9.00;;
73563;SDS011;61834;50.196;6.454;2023-02-21T04:35:55;15.07;;;8.60;;
73563;SDS011;61834;50.196;6.454;2023-02-21T04:38:24;16.70;;;8.45;;
73563;SDS011;61834;50.196;6.454;2023-02-21T04:40:50;15.20;;;8.68;;
73563;SDS011;61834;50.196;6.454;2023-02-21T04:43:16;16.50;;;8.40;;
73563;SDS011;61834;50.196;6.454;2023-02-21T04:45:41;18.30;;;8.15;;
73563;SDS011;61834;50.196;6.454;2023-02-21T04:48:07;19.77;;;10.55;;
73563;SDS011;61834;50.196;6.454;2023-02-21T04:50:32;22.05;;;12.55;;
73563;SDS011;61834;50.196;6.454;2023-02-21T04:52:58;18.60;;;10.25;;
73563;SDS011;61834;50.196;6.454;2023-02-21T04:55:23;19.15;;;10.73;;
73563;SDS011;61834;50.196;6.454;2023-02-21T04:57:49;19.55;;;11.00;;
73563;SDS011;61834;50.196;6.454;2023-02-21T05:00:14;22.42;;;11.60;;
73563;SDS011;61834;50.196;6.454;2023-02-21T05:02:43;33.08;;;12.85;;
73563;SDS011;61834;50.196;6.454;2023-02-21T05:05:09;39.40;;;16.40;;
73563;SDS011;61834;50.196;6.454;2023-02-21T05:07:35;20.63;;;10.85;;
73563;SDS011;61834;50.196;6.454;2023-02-21T05:10:00;24.60;;;11.63;;
73563;SDS011;61834;50.196;6.454;2023-02-21T05:12:26;20.95;;;10.73;;
73563;SDS011;61834;50.196;6.454;2023-02-21T05:14:51;24.50;;;11.35;;
73563;SDS011;61834;50.196;6.454;2023-02-21T05:17:17;23.30;;;11.13;;
73563;SDS011;61834;50.196;6.454;2023-02-21T05:19:42;18.92;;;10.77;;
73563;SDS011;61834;50.196;6.454;2023-02-21T05:22:10;19.15;;;10.50;;
73563;SDS011;61834;50.196;6.454;2023-02-21T05:24:39;20.75;;;10.55;;
73563;SDS011;61834;50.196;6.454;2023-02-21T05:27:06;21.70;;;10.95;;
73563;SDS011;61834;50.196;6.454;2023-02-21T05:29:35;27.98;;;12.45;;
73563;SDS011;61834;50.196;6.454;2023-02-21T05:32:01;22.80;;;11.57;;
73563;SDS011;61834;50.196;6.454;2023-02-21T05:34:26;34.13;;;14.50;;
73563;SDS011;61834;50.196;6.454;2023-02-21T05:36:52;22.15;;;9.77;;
73563;SDS011;61834;50.196;6.454;2023-02-21T05:39:17;46.83;;;12.25;;
73563;SDS011;61834;50.196;6.454;2023-02-21T05:41:46;22.70;;;10.48;;
73563;SDS011;61834;50.196;6.454;2023-02-21T05:44:13;29.27;;;11.73;;
73563;SDS011;61834;50.196;6.454;2023-02-21T05:46:39;23.58;;;10.15;;
73563;SDS011;61834;50.196;6.454;2023-02-21T05:49:04;42.47;;;14.00;;
73563;SDS011;61834;50.196;6.454;2023-02-21T05:51:34;37.95;;;13.95;;
73563;SDS011;61834;50.196;6.454;2023-02-21T05:54:01;109.85;;;18.30;;
73563;SDS011;61834;50.196;6.454;2023-02-21T05:56:27;62.42;;;16.25;;
73563;SDS011;61834;50.196;6.454;2023-02-21T05:58:53;53.60;;;15.98;;
73563;SDS011;61834;50.196;6.454;2023-02-21T06:01:18;44.55;;;15.00;;
73563;SDS011;61834;50.196;6.454;2023-02-21T06:03:43;82.15;;;17.67;;
73563;SDS011;61834;50.196;6.454;2023-02-21T06:06:09;168.18;;;22.63;;
73563;SDS011;61834;50.196;6.454;2023-02-21T06:08:41;121.93;;;18.13;;
73563;SDS011;61834;50.196;6.454;2023-02-21T06:11:07;143.07;;;21.52;;
73563;SDS011;61834;50.196;6.454;2023-02-21T06:13:33;237.48;;;24.20;;
73563;SDS011;61834;50.196;6.454;2023-02-21T06:15:58;392.90;;;33.15;;
73563;SDS011;61834;50.196;6.454;2023-02-21T06:18:23;203.05;;;23.98;;
73563;SDS011;61834;50.196;6.454;2023-02-21T06:20:49;231.18;;;27.25;;
73563;SDS011;61834;50.196;6.454;2023-02-21T06:23:14;94.20;;;19.92;;
73563;SDS011;61834;50.196;6.454;2023-02-21T06:25:40;45.38;;;16.63;;
73563;SDS011;61834;50.196;6.454;2023-02-21T06:28:05;39.42;;;16.58;;
73563;SDS011;61834;50.196;6.454;2023-02-21T06:30:31;37.42;;;16.25;;
73563;SDS011;61834;50.196;6.454;2023-02-21T06:32:56;135.25;;;20.55;;
73563;SDS011;61834;50.196;6.454;2023-02-21T06:35:21;448.88;;;38.97;;
73563;SDS011;61834;50.196;6.454;2023-02-21T06:37:47;454.23;;;39.47;;
73563;SDS011;61834;50.196;6.454;2023-02-21T06:40:12;184.82;;;22.83;;
73563;SDS011;61834;50.196;6.454;2023-02-21T06:42:38;233.27;;;27.08;;
73563;SDS011;61834;50.196;6.454;2023-02-21T06:45:03;34.75;;;15.93;;
73563;SDS011;61834;50.196;6.454;2023-02-21T06:47:29;81.47;;;17.92;;
73563;SDS011;61834;50.196;6.454;2023-02-21T06:49:55;161.10;;;21.15;;
73563;SDS011;61834;50.196;6.454;2023-02-21T06:52:20;93.93;;;16.48;;
73563;SDS011;61834;50.196;6.454;2023-02-21T06:54:48;36.17;;;14.20;;
73563;SDS011;61834;50.196;6.454;2023-02-21T06:57:14;69.20;;;13.68;;
73563;SDS011;61834;50.196;6.454;2023-02-21T06:59:39;46.88;;;15.50;;
73563;SDS011;61834;50.196;6.454;2023-02-21T07:02:05;78.78;;;15.20;;
73563;SDS011;61834;50.196;6.454;2023-02-21T07:04:31;80.60;;;15.40;;
73563;SDS011;61834;50.196;6.454;2023-02-21T07:06:56;125.57;;;16.90;;
73563;SDS011;61834;50.196;6.454;2023-02-21T07:09:22;352.85;;;28.98;;
73563;SDS011;61834;50.196;6.454;2023-02-21T07:11:47;49.53;;;13.90;;
73563;SDS011;61834;50.196;6.454;2023-02-21T07:14:13;15.63;;;11.25;;
73563;SDS011;61834;50.196;6.454;2023-02-21T07:16:39;47.88;;;11.90;;
73563;SDS011;61834;50.196;6.454;2023-02-21T07:19:04;301.65;;;22.23;;
73563;SDS011;61834;50.196;6.454;2023-02-21T07:21:30;200.13;;;19.33;;
73563;SDS011;61834;50.196;6.454;2023-02-21T07:23:55;444.52;;;35.97;;
73563;SDS011;61834;50.196;6.454;2023-02-21T07:26:21;387.13;;;28.40;;
73563;SDS011;61834;50.196;6.454;2023-02-21T07:28:47;98.63;;;16.98;;
73563;SDS011;61834;50.196;6.454;2023-02-21T07:31:13;61.65;;;14.38;;
73563;SDS011;61834;50.196;6.454;2023-02-21T07:33:40;20.00;;;9.82;;
73563;SDS011;61834;50.196;6.454;2023-02-21T07:36:06;50.00;;;12.40;;
73563;SDS011;61834;50.196;6.454;2023-02-21T07:38:32;17.73;;;10.63;;
73563;SDS011;61834;50.196;6.454;2023-02-21T07:40:58;51.10;;;13.45;;
73563;SDS011;61834;50.196;6.454;2023-02-21T07:43:25;137.25;;;16.30;;
73563;SDS011;61834;50.196;6.454;2023-02-21T07:45:51;109.38;;;17.73;;
73563;SDS011;61834;50.196;6.454;2023-02-21T07:48:17;56.35;;;11.15;;
73563;SDS011;61834;50.196;6.454;2023-02-21T07:50:43;224.40;;;21.80;;
73563;SDS011;61834;50.196;6.454;2023-02-21T07:53:09;25.40;;;9.88;;
73563;SDS011;61834;50.196;6.454;2023-02-21T07:55:37;24.73;;;11.55;;
73563;SDS011;61834;50.196;6.454;2023-02-21T07:58:02;159.30;;;20.75;;
73563;SDS011;61834;50.196;6.454;2023-02-21T08:00:28;51.67;;;13.35;;
73563;SDS011;61834;50.196;6.454;2023-02-21T08:02:54;40.13;;;15.45;;
73563;SDS011;61834;50.196;6.454;2023-02-21T08:05:19;60.08;;;20.95;;
73563;SDS011;61834;50.196;6.454;2023-02-21T08:07:45;208.45;;;24.40;;
73563;SDS011;61834;50.196;6.454;2023-02-21T08:10:13;119.88;;;18.33;;
73563;SDS011;61834;50.196;6.454;2023-02-21T08:12:44;117.05;;;20.25;;
73563;SDS011;61834;50.196;6.454;2023-02-21T08:15:10;34.13;;;14.82;;
73563;SDS011;61834;50.196;6.454;2023-02-21T08:17:35;32.70;;;14.70;;
73563;SDS011;61834;50.196;6.454;2023-02-21T08:20:01;24.73;;;13.73;;
73563;SDS011;61834;50.196;6.454;2023-02-21T08:22:28;34.25;;;15.38;;
73563;SDS011;61834;50.196;6.454;2023-02-21T08:24:54;157.52;;;21.60;;
73563;SDS011;61834;50.196;6.454;2023-02-21T08:27:19;31.92;;;13.63;;
73563;SDS011;61834;50.196;6.454;2023-02-21T08:29:45;57.45;;;14.10;;
73563;SDS011;61834;50.196;6.454;2023-02-21T08:32:14;36.47;;;14.98;;
73563;SDS011;61834;50.196;6.454;2023-02-21T08:34:39;120.88;;;21.60;;
73563;SDS011;61834;50.196;6.454;2023-02-21T08:37:05;56.97;;;16.95;;
73563;SDS011;61834;50.196;6.454;2023-02-21T08:39:47;119.28;;;19.20;;
73563;SDS011;61834;50.196;6.454;2023-02-21T08:42:13;129.75;;;21.17;;
73563;SDS011;61834;50.196;6.454;2023-02-21T08:44:41;26.20;;;13.05;;
73563;SDS011;61834;50.196;6.454;2023-02-21T08:47:07;39.92;;;13.43;;
73563;SDS011;61834;50.196;6.454;2023-02-21T08:49:33;19.50;;;11.13;;
73563;SDS011;61834;50.196;6.454;2023-02-21T08:51:59;17.02;;;9.50;;
73563;SDS011;61834;50.196;6.454;2023-02-21T08:54:24;16.42;;;9.43;;
73563;SDS011;61834;50.196;6.454;2023-02-21T08:56:50;21.80;;;9.02;;
73563;SDS011;61834;50.196;6.454;2023-02-21T08:59:16;14.60;;;7.88;;
73563;SDS011;61834;50.196;6.454;2023-02-21T09:01:41;58.05;;;10.60;;
73563;SDS011;61834;50.196;6.454;2023-02-21T09:04:06;8.90;;;7.43;;
73563;SDS011;61834;50.196;6.454;2023-02-21T09:06:32;23.15;;;7.88;;
73563;SDS011;61834;50.196;6.454;2023-02-21T09:08:57;16.20;;;8.23;;
73563;SDS011;61834;50.196;6.454;2023-02-21T09:11:23;21.70;;;8.75;;
73563;SDS011;61834;50.196;6.454;2023-02-21T09:13:48;13.73;;;9.32;;
73563;SDS011;61834;50.196;6.454;2023-02-21T09:16:14;16.40;;;10.35;;
73563;SDS011;61834;50.196;6.454;2023-02-21T09:18:39;34.67;;;13.02;;
73563;SDS011;61834;50.196;6.454;2023-02-21T09:21:05;25.13;;;12.55;;
73563;SDS011;61834;50.196;6.454;2023-02-21T09:23:31;24.77;;;10.68;;
73563;SDS011;61834;50.196;6.454;2023-02-21T09:25:56;39.05;;;13.10;;
73563;SDS011;61834;50.196;6.454;2023-02-21T09:28:22;33.65;;;11.85;;
73563;SDS011;61834;50.196;6.454;2023-02-21T09:30:48;32.70;;;12.50;;
73563;SDS011;61834;50.196;6.454;2023-02-21T09:33:14;26.23;;;11.40;;
73563;SDS011;61834;50.196;6.454;2023-02-21T09:35:40;24.23;;;11.25;;
73563;SDS011;61834;50.196;6.454;2023-02-21T09:38:06;20.55;;;10.93;;
73563;SDS011;61834;50.196;6.454;2023-02-21T09:43:34;17.40;;;10.25;;
73563;SDS011;61834;50.196;6.454;2023-02-21T09:46:03;13.57;;;9.90;;
73563;SDS011;61834;50.196;6.454;2023-02-21T09:48:35;18.70;;;11.15;;
73563;SDS011;61834;50.196;6.454;2023-02-21T09:51:02;19.77;;;11.30;;
73563;SDS011;61834;50.196;6.454;2023-02-21T09:53:30;18.30;;;10.43;;
73563;SDS011;61834;50.196;6.454;2023-02-21T09:56:01;14.30;;;10.02;;
73563;SDS011;61834;50.196;6.454;2023-02-21T09:58:38;20.83;;;11.50;;
73563;SDS011;61834;50.196;6.454;2023-02-21T10:01:11;15.38;;;11.25;;
73563;SDS011;61834;50.196;6.454;2023-02-21T10:03:51;16.23;;;11.40;;
73563;SDS011;61834;50.196;6.454;2023-02-21T10:11:57;19.08;;;12.40;;
73563;SDS011;61834;50.196;6.454;2023-02-21T10:17:49;15.40;;;10.75;;
73563;SDS011;61834;50.196;6.454;2023-02-21T10:20:38;14.40;;;10.55;;
73563;SDS011;61834;50.196;6.454;2023-02-21T10:23:14;18.73;;;11.02;;
73563;SDS011;61834;50.196;6.454;2023-02-21T10:25:42;15.48;;;10.85;;
73563;SDS011;61834;50.196;6.454;2023-02-21T10:28:20;13.05;;;10.25;;
73563;SDS011;61834;50.196;6.454;2023-02-21T10:30:47;18.13;;;11.18;;
73563;SDS011;61834;50.196;6.454;2023-02-21T10:33:16;15.57;;;11.10;;
73563;SDS011;61834;50.196;6.454;2023-02-21T10:35:41;12.50;;;9.48;;
73563;SDS011;61834;50.196;6.454;2023-02-21T10:38:08;14.18;;;9.52;;
73563;SDS011;61834;50.196;6.454;2023-02-21T10:43:18;13.70;;;9.60;;
73563;SDS011;61834;50.196;6.454;2023-02-21T10:45:50;11.50;;;8.70;;
73563;SDS011;61834;50.196;6.454;2023-02-21T10:48:21;15.93;;;9.85;;
73563;SDS011;61834;50.196;6.454;2023-02-21T10:53:24;12.32;;;9.48;;
73563;SDS011;61834;50.196;6.454;2023-02-21T10:56:39;12.60;;;9.40;;
73563;SDS011;61834;50.196;6.454;2023-02-21T10:58:50;13.68;;;9.18;;
73563;SDS011;61834;50.196;6.454;2023-02-21T11:03:59;12.82;;;9.45;;
73563;SDS011;61834;50.196;6.454;2023-02-21T11:08:55;14.35;;;9.40;;
73563;SDS011;61834;50.196;6.454;2023-02-21T11:11:35;13.38;;;8.93;;
73563;SDS011;61834;50.196;6.454;2023-02-21T11:14:11;12.85;;;8.75;;
73563;SDS011;61834;50.196;6.454;2023-02-21T11:16:45;13.00;;;8.65;;
73563;SDS011;61834;50.196;6.454;2023-02-21T11:19:33;13.93;;;9.60;;
73563;SDS011;61834;50.196;6.454;2023-02-21T11:22:10;14.02;;;9.00;;
73563;SDS011;61834;50.196;6.454;2023-02-21T11:27:25;12.43;;;8.82;;
73563;SDS011;61834;50.196;6.454;2023-02-21T11:29:53;11.93;;;8.65;;
73563;SDS011;61834;50.196;6.454;2023-02-21T11:32:26;13.07;;;8.85;;
73563;SDS011;61834;50.196;6.454;2023-02-21T11:35:02;14.02;;;10.02;;
73563;SDS011;61834;50.196;6.454;2023-02-21T11:37:53;11.43;;;9.23;;
73563;SDS011;61834;50.196;6.454;2023-02-21T11:40:23;13.10;;;10.43;;
73563;SDS011;61834;50.196;6.454;2023-02-21T11:42:48;14.10;;;10.77;;
73563;SDS011;61834;50.196;6.454;2023-02-21T11:45:18;13.73;;;11.07;;
73563;SDS011;61834;50.196;6.454;2023-02-21T11:48:21;11.75;;;10.10;;
73563;SDS011;61834;50.196;6.454;2023-02-21T11:50:43;15.02;;;9.98;;
73563;SDS011;61834;50.196;6.454;2023-02-21T11:53:30;13.23;;;10.33;;
73563;SDS011;61834;50.196;6.454;2023-02-21T11:56:07;14.27;;;10.68;;
73563;SDS011;61834;50.196;6.454;2023-02-21T12:02:29;13.20;;;11.37;;
73563;SDS011;61834;50.196;6.454;2023-02-21T12:18:22;13.85;;;10.38;;
73563;SDS011;61834;50.196;6.454;2023-02-21T12:31:30;11.80;;;9.73;;
73563;SDS011;61834;50.196;6.454;2023-02-21T12:47:41;8.70;;;7.40;;
73563;SDS011;61834;50.196;6.454;2023-02-21T12:50:25;12.65;;;9.65;;
73563;SDS011;61834;50.196;6.454;2023-02-21T12:53:02;12.02;;;9.23;;
73563;SDS011;61834;50.196;6.454;2023-02-21T12:55:35;11.57;;;9.38;;
73563;SDS011;61834;50.196;6.454;2023-02-21T13:00:55;10.65;;;7.85;;
73563;SDS011;61834;50.196;6.454;2023-02-21T13:06:17;16.63;;;11.90;;
73563;SDS011;61834;50.196;6.454;2023-02-21T13:08:51;8.95;;;6.80;;
73563;SDS011;61834;50.196;6.454;2023-02-21T13:15:34;19.17;;;11.88;;
73563;SDS011;61834;50.196;6.454;2023-02-21T13:17:40;17.52;;;12.30;;
73563;SDS011;61834;50.196;6.454;2023-02-21T13:20:09;18.80;;;11.40;;
73563;SDS011;61834;50.196;6.454;2023-02-21T13:28:41;19.55;;;11.80;;
73563;SDS011;61834;50.196;6.454;2023-02-21T13:31:17;17.85;;;10.93;;
73563;SDS011;61834;50.196;6.454;2023-02-21T13:33:52;16.30;;;11.38;;
73563;SDS011;61834;50.196;6.454;2023-02-21T13:41:37;17.33;;;12.30;;
73563;SDS011;61834;50.196;6.454;2023-02-21T13:44:52;16.63;;;11.67;;
73563;SDS011;61834;50.196;6.454;2023-02-21T14:03:02;15.82;;;11.07;;
73563;SDS011;61834;50.196;6.454;2023-02-21T14:10:51;15.68;;;10.88;;
73563;SDS011;61834;50.196;6.454;2023-02-21T14:13:20;16.23;;;11.52;;
73563;SDS011;61834;50.196;6.454;2023-02-21T14:16:09;14.25;;;10.38;;
73563;SDS011;61834;50.196;6.454;2023-02-21T14:23:55;15.82;;;10.73;;
73563;SDS011;61834;50.196;6.454;2023-02-21T14:26:43;14.55;;;10.80;;
73563;SDS011;61834;50.196;6.454;2023-02-21T14:29:31;14.70;;;10.48;;
73563;SDS011;61834;50.196;6.454;2023-02-21T14:34:35;16.63;;;10.52;;
73563;SDS011;61834;50.196;6.454;2023-02-21T14:37:10;14.88;;;10.02;;
73563;SDS011;61834;50.196;6.454;2023-02-21T14:39:48;16.15;;;10.32;;
73563;SDS011;61834;50.196;6.454;2023-02-21T15:01:08;15.45;;;10.52;;
73563;SDS011;61834;50.196;6.454;2023-02-21T15:06:29;16.15;;;11.02;;
73563;SDS011;61834;50.196;6.454;2023-02-21T15:08:57;16.55;;;10.65;;
73563;SDS011;61834;50.196;6.454;2023-02-21T15:11:36;16.65;;;11.48;;
73563;SDS011;61834;50.196;6.454;2023-02-21T15:14:18;14.77;;;10.80;;
73563;SDS011;61834;50.196;6.454;2023-02-21T15:16:56;14.05;;;10.57;;
73563;SDS011;61834;50.196;6.454;2023-02-21T15:19:33;17.65;;;11.52;;
73563;SDS011;61834;50.196;6.454;2023-02-21T15:24:37;14.73;;;11.35;;
73563;SDS011;61834;50.196;6.454;2023-02-21T15:27:09;15.68;;;10.40;;
73563;SDS011;61834;50.196;6.454;2023-02-21T15:29:36;15.25;;;10.90;;
73563;SDS011;61834;50.196;6.454;2023-02-21T15:32:01;15.98;;;10.45;;
73563;SDS011;61834;50.196;6.454;2023-02-21T15:39:51;17.00;;;11.50;;
73563;SDS011;61834;50.196;6.454;2023-02-21T15:42:20;24.70;;;11.43;;
73563;SDS011;61834;50.196;6.454;2023-02-21T15:44:49;18.25;;;13.70;;
73563;SDS011;61834;50.196;6.454;2023-02-21T15:47:24;15.98;;;10.45;;
73563;SDS011;61834;50.196;6.454;2023-02-21T15:52:45;13.75;;;9.68;;
73563;SDS011;61834;50.196;6.454;2023-02-21T15:57:56;14.50;;;9.40;;
73563;SDS011;61834;50.196;6.454;2023-02-21T16:02:47;15.88;;;9.50;;
73563;SDS011;61834;50.196;6.454;2023-02-21T16:07:49;17.40;;;10.50;;
73563;SDS011;61834;50.196;6.454;2023-02-21T16:10:18;15.80;;;10.43;;
73563;SDS011;61834;50.196;6.454;2023-02-21T16:12:52;17.90;;;10.70;;
73563;SDS011;61834;50.196;6.454;2023-02-21T16:15:21;21.00;;;13.30;;
73563;SDS011;61834;50.196;6.454;2023-02-21T16:17:53;18.02;;;11.50;;
73563;SDS011;61834;50.196;6.454;2023-02-21T16:20:40;20.60;;;10.98;;
73563;SDS011;61834;50.196;6.454;2023-02-21T16:28:34;23.80;;;11.57;;
73563;SDS011;61834;50.196;6.454;2023-02-21T16:31:02;18.58;;;10.95;;
73563;SDS011;61834;50.196;6.454;2023-02-21T16:33:30;16.20;;;10.65;;
73563;SDS011;61834;50.196;6.454;2023-02-21T16:35:57;18.10;;;11.38;;
73563;SDS011;61834;50.196;6.454;2023-02-21T16:38:23;20.50;;;13.00;;
73563;SDS011;61834;50.196;6.454;2023-02-21T16:40:50;20.75;;;14.07;;
73563;SDS011;61834;50.196;6.454;2023-02-21T16:43:25;19.13;;;11.18;;
73563;SDS011;61834;50.196;6.454;2023-02-21T16:45:53;17.13;;;10.63;;
73563;SDS011;61834;50.196;6.454;2023-02-21T16:48:22;19.42;;;10.95;;
73563;SDS011;61834;50.196;6.454;2023-02-21T16:50:52;19.40;;;11.35;;
73563;SDS011;61834;50.196;6.454;2023-02-21T16:53:18;23.05;;;14.73;;
73563;SDS011;61834;50.196;6.454;2023-02-21T16:55:45;22.70;;;13.38;;
73563;SDS011;61834;50.196;6.454;2023-02-21T16:58:31;23.95;;;14.95;;
73563;SDS011;61834;50.196;6.454;2023-02-21T17:01:10;23.88;;;12.57;;
73563;SDS011;61834;50.196;6.454;2023-02-21T17:03:38;20.73;;;12.65;;
73563;SDS011;61834;50.196;6.454;2023-02-21T17:06:05;16.90;;;10.90;;
73563;SDS011;61834;50.196;6.454;2023-02-21T17:08:31;21.85;;;11.20;;
73563;SDS011;61834;50.196;6.454;2023-02-21T17:10:56;17.40;;;10.85;;
73563;SDS011;61834;50.196;6.454;2023-02-21T17:13:23;18.05;;;10.73;;
73563;SDS011;61834;50.196;6.454;2023-02-21T17:15:49;19.48;;;11.20;;
73563;SDS011;61834;50.196;6.454;2023-02-21T17:18:14;18.92;;;10.50;;
73563;SDS011;61834;50.196;6.454;2023-02-21T17:20:40;20.90;;;10.88;;
73563;SDS011;61834;50.196;6.454;2023-02-21T17:23:05;20.73;;;10.32;;
73563;SDS011;61834;50.196;6.454;2023-02-21T17:25:31;18.58;;;10.73;;
73563;SDS011;61834;50.196;6.454;2023-02-21T17:27:59;15.52;;;8.02;;
73563;SDS011;61834;50.196;6.454;2023-02-21T17:30:24;13.25;;;7.18;;
73563;SDS011;61834;50.196;6.454;2023-02-21T17:32:51;18.30;;;9.68;;
73563;SDS011;61834;50.196;6.454;2023-02-21T17:35:17;23.02;;;9.23;;
73563;SDS011;61834;50.196;6.454;2023-02-21T17:37:44;12.45;;;8.25;;
73563;SDS011;61834;50.196;6.454;2023-02-21T17:40:20;15.60;;;8.63;;
73563;SDS011;61834;50.196;6.454;2023-02-21T17:42:46;13.40;;;8.55;;
73563;SDS011;61834;50.196;6.454;2023-02-21T17:45:11;16.67;;;8.98;;
73563;SDS011;61834;50.196;6.454;2023-02-21T17:47:40;17.35;;;8.82;;
73563;SDS011;61834;50.196;6.454;2023-02-21T17:50:06;13.82;;;8.05;;
73563;SDS011;61834;50.196;6.454;2023-02-21T17:52:31;17.63;;;10.05;;
73563;SDS011;61834;50.196;6.454;2023-02-21T17:54:57;21.30;;;13.10;;
73563;SDS011;61834;50.196;6.454;2023-02-21T17:57:23;17.38;;;9.63;;
73563;SDS011;61834;50.196;6.454;2023-02-21T17:59:48;19.23;;;10.05;;
73563;SDS011;61834;50.196;6.454;2023-02-21T18:02:14;18.80;;;10.25;;